Time;durP1;ratioP1;P1;durP2;ratioP2;P2;SDS_P1;SDS_P2;PMS_P1;PMS_P2;Temp;Humidity;BMP_temperature;BMP_pressure;BME280_temperature;BME280_humidity;BME280_pressure;Samples;Min_cycle;Max_cycle;Signal;HPM_P1;HPM_P2
2023/07/13 00:01:51;;;;;;;;;;;;;;;14.73;100.00;101359.22;4988873;28;19925;-75
2023/07/13 00:04:17;;;;;;;;;;;;;;;14.78;100.00;101358.81;4974730;28;20509;-74
2023/07/13 00:06:44;;;;;;;;;;;;;;;14.66;100.00;101366.13;4982958;28;20403;-74
2023/07/13 00:09:09;;;;;;;;;;;;;;;14.61;100.00;101371.94;4986829;28;19925;-74
2023/07/13 00:11:35;;;;;;;;;;;;;;;14.48;100.00;101361.34;4986494;28;19969;-74
2023/07/13 00:14:00;;;;;;;;;;;;;;;14.45;100.00;101374.22;4987476;28;20075;-75
2023/07/13 00:16:25;;;;;;;;;;;;;;;14.35;100.00;101368.78;4985295;28;19930;-74
2023/07/13 00:18:52;;;;;;;;;;;;;;;14.23;100.00;101371.53;4991747;28;19925;-75
2023/07/13 00:21:17;;;;;;;;;;;;;;;14.22;100.00;101371.66;4990920;28;19925;-75
2023/07/13 00:23:43;;;;;;;;;;;;;;;14.16;100.00;101366.81;4986755;28;20355;-75
2023/07/13 00:26:08;;;;;;;;;;;;;;;14.14;100.00;101366.06;4988109;28;19936;-75
2023/07/13 00:28:34;;;;;;;;;;;;;;;14.10;100.00;101366.34;4990014;28;19925;-74
2023/07/13 00:30:59;;;;;;;;;;;;;;;14.09;100.00;101370.03;4985321;28;19967;-74
2023/07/13 00:33:25;;;;;;;;;;;;;;;14.02;100.00;101374.22;4987566;28;19922;-75
2023/07/13 00:35:50;;;;;;;;;;;;;;;13.99;100.00;101377.16;4987858;28;20281;-76
2023/07/13 00:38:15;;;;;;;;;;;;;;;14.00;100.00;101376.19;4987848;28;19941;-75
2023/07/13 00:40:41;;;;;;;;;;;;;;;14.02;100.00;101365.28;4986923;28;19925;-76
2023/07/13 00:43:13;;;;;;;;;;;;;;;14.00;100.00;101359.97;4990578;28;19961;-76
2023/07/13 00:45:41;;;;;;;;;;;;;;;13.82;100.00;101365.06;4982729;28;19925;-76
2023/07/13 00:48:06;;;;;;;;;;;;;;;13.76;100.00;101365.63;4988197;28;19971;-76
2023/07/13 00:50:32;;;;;;;;;;;;;;;13.73;100.00;101364.00;4989717;28;20230;-76
2023/07/13 00:52:58;;;;;;;;;;;;;;;13.49;100.00;101377.69;4988144;28;19925;-76
2023/07/13 00:55:23;;;;;;;;;;;;;;;13.47;100.00;101379.66;4988032;28;21361;-76
2023/07/13 00:57:49;;;;;;;;;;;;;;;13.31;100.00;101383.56;4988339;28;20374;-76
2023/07/13 01:00:14;;;;;;;;;;;;;;;13.29;100.00;101387.38;4988422;28;20646;-76
2023/07/13 01:02:40;;;;;;;;;;;;;;;13.24;100.00;101398.53;4975230;28;19926;-76
2023/07/13 01:05:09;;;;;;;;;;;;;;;13.11;100.00;101389.69;5011294;28;20372;-76
2023/07/13 01:07:34;;;;;;;;;;;;;;;13.07;100.00;101391.78;4993810;28;20348;-75
2023/07/13 01:09:59;;;;;;;;;;;;;;;13.10;100.00;101387.97;4992157;28;19980;-74
2023/07/13 01:12:25;;;;;;;;;;;;;;;13.20;100.00;101392.50;4994106;28;19961;-74
2023/07/13 01:14:56;;;;;;;;;;;;;;;13.22;100.00;101388.84;4994156;28;20004;-74
2023/07/13 01:17:21;;;;;;;;;;;;;;;13.36;100.00;101383.19;4994746;28;20276;-75
2023/07/13 01:19:47;;;;;;;;;;;;;;;13.40;100.00;101381.94;4992497;28;19930;-76
2023/07/13 01:22:13;;;;;;;;;;;;;;;13.35;100.00;101386.88;4995281;28;19918;-76
2023/07/13 01:24:39;;;;;;;;;;;;;;;13.40;100.00;101394.59;4996551;28;19925;-76
2023/07/13 01:27:05;;;;;;;;;;;;;;;13.37;100.00;101393.00;4992837;28;19933;-76
2023/07/13 01:29:31;;;;;;;;;;;;;;;13.37;100.00;101394.84;4995926;28;19925;-75
2023/07/13 01:31:56;;;;;;;;;;;;;;;13.34;100.00;101391.41;4994293;28;19918;-76
2023/07/13 01:34:21;;;;;;;;;;;;;;;13.33;100.00;101388.84;4993832;28;19926;-76
2023/07/13 01:36:47;;;;;;;;;;;;;;;13.34;100.00;101390.56;4995503;28;20189;-76
2023/07/13 01:39:12;;;;;;;;;;;;;;;13.31;100.00;101391.66;4994518;28;19963;-76
2023/07/13 01:41:37;;;;;;;;;;;;;;;13.29;100.00;101390.91;4989329;28;19932;-75
2023/07/13 01:44:02;;;;;;;;;;;;;;;13.26;100.00;101395.69;4991743;28;19932;-76
2023/07/13 01:46:28;;;;;;;;;;;;;;;13.20;100.00;101391.66;4993482;28;19918;-76
2023/07/13 01:48:53;;;;;;;;;;;;;;;13.31;100.00;101388.94;4993196;28;19921;-75
2023/07/13 01:51:19;;;;;;;;;;;;;;;13.34;100.00;101388.69;4992657;28;20403;-74
2023/07/13 01:53:44;;;;;;;;;;;;;;;13.19;100.00;101400.75;4989708;28;20525;-75
2023/07/13 01:56:09;;;;;;;;;;;;;;;13.16;100.00;101396.44;4994154;28;19973;-75
2023/07/13 01:58:34;;;;;;;;;;;;;;;13.25;100.00;101400.22;4992790;28;19925;-76
2023/07/13 02:01:00;;;;;;;;;;;;;;;13.20;100.00;101387.13;4991953;28;19931;-76
2023/07/13 02:03:25;;;;;;;;;;;;;;;13.25;100.00;101393.97;4993650;28;19928;-75
2023/07/13 02:05:50;;;;;;;;;;;;;;;13.32;100.00;101387.97;4994253;28;20289;-75
2023/07/13 02:08:15;;;;;;;;;;;;;;;13.32;100.00;101389.81;4993316;28;20433;-75
2023/07/13 02:10:41;;;;;;;;;;;;;;;13.20;100.00;101394.38;4993285;28;20429;-76
2023/07/13 02:13:06;;;;;;;;;;;;;;;13.13;100.00;101396.66;4993982;28;20256;-75
2023/07/13 02:15:31;;;;;;;;;;;;;;;13.13;100.00;101396.66;4992416;28;20399;-74
2023/07/13 02:17:58;;;;;;;;;;;;;;;13.11;100.00;101390.53;4993053;28;19925;-75
2023/07/13 02:20:23;;;;;;;;;;;;;;;13.18;100.00;101396.31;4976569;28;19921;-75
2023/07/13 02:22:48;;;;;;;;;;;;;;;13.19;100.00;101396.19;4994293;28;19925;-75
2023/07/13 02:25:14;;;;;;;;;;;;;;;13.12;100.00;101402.19;4996774;28;19979;-75
2023/07/13 02:27:39;;;;;;;;;;;;;;;13.15;100.00;101400.09;4994834;28;20020;-75
2023/07/13 02:30:04;;;;;;;;;;;;;;;13.16;100.00;101398.28;4979823;28;19961;-75
2023/07/13 02:32:30;;;;;;;;;;;;;;;13.15;100.00;101400.09;4997862;28;20047;-75
2023/07/13 02:34:55;;;;;;;;;;;;;;;13.11;100.00;101400.47;4994504;28;20224;-74
2023/07/13 02:37:21;;;;;;;;;;;;;;;13.03;100.00;101406.50;4995638;28;20395;-75
2023/07/13 02:39:47;;;;;;;;;;;;;;;13.03;100.00;101404.63;4995178;28;19925;-75
2023/07/13 02:42:13;;;;;;;;;;;;;;;13.03;100.00;101403.78;4996144;28;19918;-74
2023/07/13 02:44:38;;;;;;;;;;;;;;;13.05;100.00;101402.69;4991900;28;19932;-74
2023/07/13 02:47:03;;;;;;;;;;;;;;;13.11;100.00;101405.88;4995203;28;19935;-76
2023/07/13 02:49:28;;;;;;;;;;;;;;;13.09;100.00;101403.31;4995798;28;19929;-74
2023/07/13 02:51:53;;;;;;;;;;;;;;;13.08;100.00;101407.00;4976320;28;19914;-74
2023/07/13 02:54:19;;;;;;;;;;;;;;;13.04;100.00;101403.66;4996269;28;19929;-75
2023/07/13 02:56:44;;;;;;;;;;;;;;;13.02;100.00;101410.16;4997140;28;19932;-75
2023/07/13 02:59:10;;;;;;;;;;;;;;;13.01;100.00;101409.28;4997817;28;20501;-75
2023/07/13 03:01:35;;;;;;;;;;;;;;;13.00;100.00;101414.81;4994837;28;19921;-75
2023/07/13 03:04:01;;;;;;;;;;;;;;;12.99;100.00;101413.94;4995494;28;20330;-74
2023/07/13 03:06:30;;;;;;;;;;;;;;;12.98;100.00;101420.31;4994862;28;19932;-75
2023/07/13 03:08:55;;;;;;;;;;;;;;;12.96;100.00;101418.72;4994389;28;20328;-75
2023/07/13 03:11:20;;;;;;;;;;;;;;;12.95;100.00;101417.88;4995397;28;20029;-75
2023/07/13 03:13:46;;;;;;;;;;;;;;;12.97;100.00;101425.84;4996656;28;19926;-74
2023/07/13 03:16:11;;;;;;;;;;;;;;;12.92;100.00;101423.50;4996354;28;19925;-77
2023/07/13 03:18:37;;;;;;;;;;;;;;;12.93;100.00;101427.06;4989344;28;19925;-76
2023/07/13 03:21:02;;;;;;;;;;;;;;;12.90;100.00;101425.47;4991805;28;19929;-77
2023/07/13 03:23:27;;;;;;;;;;;;;;;12.95;100.00;101427.78;4990481;28;20365;-76
2023/07/13 03:26:05;;;;;;;;;;;;;;;12.87;100.00;101423.84;4991395;28;19925;-74
2023/07/13 03:28:31;;;;;;;;;;;;;;;12.86;100.00;101422.13;4986826;28;19925;-74
2023/07/13 03:31:03;;;;;;;;;;;;;;;12.91;100.00;101429.88;4994515;28;20360;-74
2023/07/13 03:33:28;;;;;;;;;;;;;;;12.94;100.00;101434.16;4992454;28;19929;-75
2023/07/13 03:35:53;;;;;;;;;;;;;;;12.92;100.00;101428.03;4991167;28;19926;-74
2023/07/13 03:38:19;;;;;;;;;;;;;;;12.96;100.00;101424.13;4995832;28;19925;-75
2023/07/13 03:40:44;;;;;;;;;;;;;;;12.93;100.00;101427.06;4994467;28;19944;-74
2023/07/13 03:43:10;;;;;;;;;;;;;;;12.89;100.00;101435.38;4991140;28;19925;-75
2023/07/13 03:45:37;;;;;;;;;;;;;;;12.92;100.00;101434.28;4995966;28;19922;-74
2023/07/13 03:48:02;;;;;;;;;;;;;;;12.96;100.00;101443.00;4994414;28;19933;-75
2023/07/13 03:50:27;;;;;;;;;;;;;;;12.89;100.00;101434.53;4990313;28;20283;-74
2023/07/13 03:52:53;;;;;;;;;;;;;;;12.92;100.00;101438.81;4989251;28;20459;-74
2023/07/13 03:55:18;;;;;;;;;;;;;;;12.91;100.00;101443.34;4988287;28;19926;-74
2023/07/13 03:57:43;;;;;;;;;;;;;;;12.94;100.00;101444.94;4990498;28;19968;-73
2023/07/13 04:00:09;;;;;;;;;;;;;;;13.01;100.00;101448.88;4989755;28;19925;-73
2023/07/13 04:02:34;;;;;;;;;;;;;;;12.93;100.00;101444.09;4985034;28;20063;-74
2023/07/13 04:04:59;;;;;;;;;;;;;;;12.91;100.00;101448.75;4984579;28;19964;-75
2023/07/13 04:07:24;;;;;;;;;;;;;;;12.97;100.00;101453.66;4973727;28;20000;-74
2023/07/13 04:09:49;;;;;;;;;;;;;;;12.93;100.00;101448.63;4985511;28;19976;-74
2023/07/13 04:12:15;;;;;;;;;;;;;;;12.98;100.00;101454.50;4989520;28;20362;-69
2023/07/13 04:14:40;;;;;;;;;;;;;;;12.95;100.00;101455.63;4987524;28;19930;-74
2023/07/13 04:17:05;;;;;;;;;;;;;;;12.99;100.00;101456.22;4990992;28;19964;-74
2023/07/13 04:19:30;;;;;;;;;;;;;;;12.90;100.00;101458.66;4987978;28;20012;-74
2023/07/13 04:21:56;;;;;;;;;;;;;;;12.96;100.00;101464.56;4992614;28;19964;-74
2023/07/13 04:24:21;;;;;;;;;;;;;;;12.98;100.00;101460.75;4985991;28;19976;-74
2023/07/13 04:26:46;;;;;;;;;;;;;;;13.05;100.00;101464.69;4986692;28;20775;-72
2023/07/13 04:29:11;;;;;;;;;;;;;;;13.13;100.00;101463.22;4989234;28;19976;-74
2023/07/13 04:31:36;;;;;;;;;;;;;;;13.10;100.00;101468.84;4984652;28;20319;-75
2023/07/13 04:34:02;;;;;;;;;;;;;;;13.12;100.00;101472.28;4984160;28;20287;-74
2023/07/13 04:36:28;;;;;;;;;;;;;;;13.19;100.00;101470.84;4988465;28;20365;-74
2023/07/13 04:38:55;;;;;;;;;;;;;;;13.27;100.00;101473.75;4983781;28;19925;-75
2023/07/13 04:41:21;;;;;;;;;;;;;;;13.36;100.00;101477.59;4980798;28;20384;-73
2023/07/13 04:43:46;;;;;;;;;;;;;;;13.44;100.00;101479.72;4991367;28;19932;-76
2023/07/13 04:46:12;;;;;;;;;;;;;;;13.45;100.00;101484.13;4994476;28;19955;-79
2023/07/13 04:48:37;;;;;;;;;;;;;;;13.46;100.00;101486.69;4993541;28;20233;-73
2023/07/13 04:51:03;;;;;;;;;;;;;;;13.55;100.00;101485.09;4981029;28;19925;-72
2023/07/13 04:53:28;;;;;;;;;;;;;;;13.62;100.00;101489.00;4994256;28;20044;-77
2023/07/13 04:55:53;;;;;;;;;;;;;;;13.71;100.00;101495.50;4994905;28;20512;-76
2023/07/13 04:58:19;;;;;;;;;;;;;;;13.74;100.00;101494.41;5003749;28;19936;-73
2023/07/13 05:00:44;;;;;;;;;;;;;;;13.79;100.00;101494.88;4990090;28;20380;-74
2023/07/13 05:03:09;;;;;;;;;;;;;;;13.80;100.00;101488.50;4991238;28;20425;-76
2023/07/13 05:05:34;;;;;;;;;;;;;;;13.87;100.00;101500.50;4990518;28;20007;-70
2023/07/13 05:08:00;;;;;;;;;;;;;;;13.90;100.00;101500.28;4994272;28;20011;-76
2023/07/13 05:10:25;;;;;;;;;;;;;;;14.03;100.00;101496.56;4991443;28;20169;-75
2023/07/13 05:12:50;;;;;;;;;;;;;;;14.17;100.00;101492.75;4975309;28;19925;-76
2023/07/13 05:15:16;;;;;;;;;;;;;;;14.23;100.00;101508.41;4989752;28;19965;-74
2023/07/13 05:17:41;;;;;;;;;;;;;;;14.40;100.00;101499.78;4992353;28;20343;-75
2023/07/13 05:20:07;;;;;;;;;;;;;;;14.58;100.00;101495.63;4996357;28;19931;-75
2023/07/13 05:22:32;;;;;;;;;;;;;;;14.67;100.00;101505.66;5000045;28;19936;-76
2023/07/13 05:24:57;;;;;;;;;;;;;;;14.64;100.00;101512.22;4989182;28;20435;-75
2023/07/13 05:27:23;;;;;;;;;;;;;;;14.57;100.00;101499.34;4994255;28;20319;-76
2023/07/13 05:29:48;;;;;;;;;;;;;;;14.73;100.00;101505.19;4995494;28;20462;-74
2023/07/13 05:32:13;;;;;;;;;;;;;;;14.74;100.00;101509.59;4992260;28;19930;-75
2023/07/13 05:34:38;;;;;;;;;;;;;;;14.81;100.00;101518.03;4989497;28;20021;-75
2023/07/13 05:37:04;;;;;;;;;;;;;;;14.77;100.00;101512.06;5001599;28;20059;-74
2023/07/13 05:39:29;;;;;;;;;;;;;;;14.88;100.00;101513.84;4995950;28;19979;-77
2023/07/13 05:41:54;;;;;;;;;;;;;;;15.02;100.00;101517.19;4971733;28;19930;-77
2023/07/13 05:44:19;;;;;;;;;;;;;;;15.06;100.00;101524.06;4988209;28;19988;-77
2023/07/13 05:46:45;;;;;;;;;;;;;;;15.14;100.00;101521.56;5007466;28;20471;-78
2023/07/13 05:49:10;;;;;;;;;;;;;;;15.19;100.00;101519.31;4975532;28;19956;-77
2023/07/13 05:51:36;;;;;;;;;;;;;;;15.41;100.00;101525.53;4973658;28;20251;-77
2023/07/13 05:54:01;;;;;;;;;;;;;;;15.35;100.00;101528.78;4993531;28;19964;-76
2023/07/13 05:56:26;;;;;;;;;;;;;;;15.32;100.00;101527.22;4975396;28;19926;-71
2023/07/13 05:58:51;;;;;;;;;;;;;;;15.56;100.00;101532.31;4991781;28;20034;-76
2023/07/13 06:01:17;;;;;;;;;;;;;;;15.66;100.00;101531.50;4997552;28;19936;-75
2023/07/13 06:03:42;;;;;;;;;;;;;;;15.79;100.00;101528.56;4995089;28;20012;-75
2023/07/13 06:06:08;;;;;;;;;;;;;;;15.73;100.00;101530.81;4996244;28;20316;-75
2023/07/13 06:08:34;;;;;;;;;;;;;;;15.60;100.00;101541.03;4980921;28;20472;-73
2023/07/13 06:11:06;;;;;;;;;;;;;;;15.57;100.00;101539.44;4997101;28;20394;-75
2023/07/13 06:13:31;;;;;;;;;;;;;;;15.75;100.00;101536.09;4978357;28;20276;-77
2023/07/13 06:15:57;;;;;;;;;;;;;;;15.92;100.00;101547.28;4977863;28;19926;-79
2023/07/13 06:18:22;;;;;;;;;;;;;;;15.98;100.00;101553.00;4996755;28;19933;-74
2023/07/13 06:20:47;;;;;;;;;;;;;;;16.22;100.00;101553.66;5005531;28;19921;-75
2023/07/13 06:23:12;;;;;;;;;;;;;;;16.19;100.00;101554.78;4996026;28;19926;-73
2023/07/13 06:25:37;;;;;;;;;;;;;;;16.46;100.00;101551.41;4996025;28;19928;-76
2023/07/13 06:28:03;;;;;;;;;;;;;;;16.47;100.00;101539.56;4995346;28;20089;-72
2023/07/13 06:30:28;;;;;;;;;;;;;;;16.49;100.00;101559.25;4989696;28;20032;-74
2023/07/13 06:32:53;;;;;;;;;;;;;;;16.29;100.00;101560.22;4978080;28;19925;-74
2023/07/13 06:35:19;;;;;;;;;;;;;;;16.35;100.00;101562.38;4992111;28;19930;-75
2023/07/13 06:37:44;;;;;;;;;;;;;;;16.54;100.00;101556.13;5007482;28;19924;-74
2023/07/13 06:40:09;;;;;;;;;;;;;;;16.45;100.00;101563.25;4980107;28;19929;-73
2023/07/13 06:42:34;;;;;;;;;;;;;;;16.59;100.00;101566.53;4996837;28;19926;-74
2023/07/13 06:45:00;;;;;;;;;;;;;;;16.70;100.00;101555.56;4992417;28;19967;-76
2023/07/13 06:47:25;;;;;;;;;;;;;;;16.65;100.00;101552.41;5002064;28;19925;-75
2023/07/13 06:49:50;;;;;;;;;;;;;;;16.75;100.00;101558.72;4976833;28;19964;-75
2023/07/13 06:52:15;;;;;;;;;;;;;;;16.98;100.00;101557.56;4994887;28;20028;-76
2023/07/13 06:54:40;;;;;;;;;;;;;;;17.05;100.00;101565.00;4993685;28;19928;-74
2023/07/13 06:57:06;;;;;;;;;;;;;;;17.18;100.00;101559.28;4977009;28;19925;-76
2023/07/13 06:59:31;;;;;;;;;;;;;;;17.24;100.00;101563.25;4994178;28;19921;-72
2023/07/13 07:01:57;;;;;;;;;;;;;;;17.01;100.00;101573.56;4995299;28;20360;-73
2023/07/13 07:04:22;;;;;;;;;;;;;;;17.18;100.00;101559.28;4993887;28;19952;-74
2023/07/13 07:06:48;;;;;;;;;;;;;;;17.36;100.00;101572.94;4994176;28;19921;-74
2023/07/13 07:09:13;;;;;;;;;;;;;;;17.26;100.00;101568.53;4993973;28;19929;-72
2023/07/13 07:11:38;;;;;;;;;;;;;;;17.36;100.00;101581.06;4992071;28;19931;-73
2023/07/13 07:14:04;;;;;;;;;;;;;;;17.47;100.00;101571.94;4994591;28;19929;-76
2023/07/13 07:16:29;;;;;;;;;;;;;;;17.27;100.00;101567.53;4989814;28;20027;-71
2023/07/13 07:18:54;;;;;;;;;;;;;;;17.33;100.00;101575.97;4990777;28;20334;-75
2023/07/13 07:21:22;;;;;;;;;;;;;;;17.46;100.00;101575.66;5001089;28;20059;-74
2023/07/13 07:23:47;;;;;;;;;;;;;;;17.44;100.00;101566.78;4996686;28;19949;-75
2023/07/13 07:26:13;;;;;;;;;;;;;;;17.74;100.00;101574.81;4994669;28;20324;-73
2023/07/13 07:28:38;;;;;;;;;;;;;;;17.72;100.00;101574.13;4992228;28;20074;-75
2023/07/13 07:31:03;;;;;;;;;;;;;;;17.80;100.00;101577.78;4988541;28;19960;-73
2023/07/13 07:33:28;;;;;;;;;;;;;;;17.98;100.00;101583.31;4985766;28;19931;-74
2023/07/13 07:35:54;;;;;;;;;;;;;;;17.92;100.00;101583.03;5000389;28;19924;-76
2023/07/13 07:38:19;;;;;;;;;;;;;;;18.00;100.00;101583.19;5001570;28;19925;-75
2023/07/13 07:40:44;;;;;;;;;;;;;;;18.09;100.00;101587.69;4997708;28;19928;-76
2023/07/13 07:43:10;;;;;;;;;;;;;;;18.18;100.00;101590.53;4994324;28;20181;-74
2023/07/13 07:45:35;;;;;;;;;;;;;;;18.02;100.00;101588.47;4993263;28;19952;-74
2023/07/13 07:48:00;;;;;;;;;;;;;;;18.26;100.00;101582.50;4990829;28;19929;-74
2023/07/13 07:50:26;;;;;;;;;;;;;;;18.58;100.00;101583.81;4990525;28;19929;-75
2023/07/13 07:52:51;;;;;;;;;;;;;;;18.59;100.00;101594.56;4980768;28;20075;-75
2023/07/13 07:55:16;;;;;;;;;;;;;;;18.70;100.00;101598.91;5002061;28;19925;-75
2023/07/13 07:57:42;;;;;;;;;;;;;;;18.80;100.00;101589.84;4998299;28;19926;-76
2023/07/13 08:00:07;;;;;;;;;;;;;;;18.99;100.00;101581.53;4993769;28;20933;-75
2023/07/13 08:02:32;;;;;;;;;;;;;;;18.88;100.00;101598.94;4994206;28;20252;-75
2023/07/13 08:04:58;;;;;;;;;;;;;;;18.62;100.00;101595.28;4994080;28;20028;-77
2023/07/13 08:07:23;;;;;;;;;;;;;;;18.62;100.00;101587.94;4989898;28;19936;-73
2023/07/13 08:09:52;;;;;;;;;;;;;;;18.72;100.00;101594.19;4999298;28;19933;-77
2023/07/13 08:12:17;;;;;;;;;;;;;;;18.55;100.00;101595.00;4975844;28;20312;-74
2023/07/13 08:14:42;;;;;;;;;;;;;;;18.63;100.00;101596.97;4990741;28;19921;-72
2023/07/13 08:17:07;;;;;;;;;;;;;;;18.52;100.00;101590.75;4992747;28;19948;-76
2023/07/13 08:19:33;;;;;;;;;;;;;;;18.65;100.00;101595.81;4990233;28;19925;-75
2023/07/13 08:21:58;;;;;;;;;;;;;;;18.86;100.00;101587.34;4993811;28;19925;-75
2023/07/13 08:24:23;;;;;;;;;;;;;;;18.85;100.00;101585.63;5003401;28;19940;-76
2023/07/13 08:26:48;;;;;;;;;;;;;;;18.96;100.00;101573.69;4994806;28;19936;-77
2023/07/13 08:29:13;;;;;;;;;;;;;;;19.09;100.00;101597.78;4991417;28;19929;-77
2023/07/13 08:31:39;;;;;;;;;;;;;;;19.25;100.00;101580.72;4988390;28;19959;-74
2023/07/13 08:34:04;;;;;;;;;;;;;;;19.20;100.00;101580.34;4992340;28;20030;-76
2023/07/13 08:36:29;;;;;;;;;;;;;;;19.29;100.00;101581.25;4993946;28;19933;-74
2023/07/13 08:38:54;;;;;;;;;;;;;;;19.49;100.00;101590.06;4990789;28;19977;-76
2023/07/13 08:41:20;;;;;;;;;;;;;;;19.86;100.00;101594.38;4992179;28;20005;-75
2023/07/13 08:43:48;;;;;;;;;;;;;;;19.75;100.00;101587.31;4973479;28;19948;-74
2023/07/13 08:46:34;;;;;;;;;;;;;;;19.33;100.00;101588.91;4983092;28;19962;-76
2023/07/13 08:49:01;;;;;;;;;;;;;;;19.30;100.00;101583.81;4979438;28;19932;-71
2023/07/13 08:51:32;;;;;;;;;;;;;;;18.59;100.00;101591.84;4968881;28;20371;-75
2023/07/13 08:53:59;;;;;;;;;;;;;;;18.81;100.00;101594.25;4993492;28;19921;-74
2023/07/13 08:56:24;;;;;;;;;;;;;;;19.41;100.00;101582.69;4995240;28;20433;-73
2023/07/13 08:58:52;;;;;;;;;;;;;;;19.68;100.00;101578.09;4987298;28;19930;-72
2023/07/13 09:01:27;;;;;;;;;;;;;;;19.68;100.00;101567.19;4975246;28;19926;-76
2023/07/13 09:04:04;;;;;;;;;;;;;;;19.63;100.00;101566.81;4995171;28;19987;-77
2023/07/13 09:06:32;;;;;;;;;;;;;;;19.66;100.00;101558.34;4993471;28;20040;-76
2023/07/13 09:09:07;;;;;;;;;;;;;;;20.05;100.00;101567.91;4991048;28;19940;-77
2023/07/13 09:11:32;;;;;;;;;;;;;;;20.05;100.00;101571.47;4975063;28;19983;-74
2023/07/13 09:14:03;;;;;;;;;;;;;;;20.44;100.00;101580.13;4996500;28;20388;-74
2023/07/13 09:16:29;;;;;;;;;;;;;;;20.44;100.00;101570.06;4993388;28;19960;-73
2023/07/13 09:18:55;;;;;;;;;;;;;;;20.52;100.00;101567.34;4999596;28;20017;-74
2023/07/13 09:21:22;;;;;;;;;;;;;;;20.87;100.00;101569.13;4986192;28;20023;-75
2023/07/13 09:23:47;;;;;;;;;;;;;;;20.91;100.00;101578.69;4993872;28;19926;-71
2023/07/13 09:26:14;;;;;;;;;;;;;;;21.32;100.00;101569.63;4994856;28;19928;-74
2023/07/13 09:28:43;;;;;;;;;;;;;;;21.15;98.23;101571.50;4992469;28;19925;-75
2023/07/13 09:31:19;;;;;;;;;;;;;;;21.19;97.49;101572.88;4991405;28;20391;-76
2023/07/13 09:33:45;;;;;;;;;;;;;;;21.58;95.14;101570.22;4994710;28;20229;-75
2023/07/13 09:36:19;;;;;;;;;;;;;;;21.43;90.13;101566.50;4995249;28;19925;-72
2023/07/13 09:38:46;;;;;;;;;;;;;;;21.21;93.71;101570.81;4995748;28;20347;-77
2023/07/13 09:41:14;;;;;;;;;;;;;;;20.68;95.47;101569.25;4996561;28;20351;-75
2023/07/13 09:44:00;;;;;;;;;;;;;;;20.61;99.51;101576.41;4997899;28;20314;-77
2023/07/13 09:46:25;;;;;;;;;;;;;;;20.84;91.59;101573.03;4994723;28;20007;-75
2023/07/13 09:48:50;;;;;;;;;;;;;;;20.92;95.82;101570.31;5000251;28;20108;-81
2023/07/13 09:51:16;;;;;;;;;;;;;;;20.92;90.30;101577.66;4999001;28;19926;-74
2023/07/13 09:53:43;;;;;;;;;;;;;;;20.66;93.61;101578.59;4997225;28;19932;-72
2023/07/13 09:56:18;;;;;;;;;;;;;;;20.10;96.04;101568.28;5001469;28;19930;-74
2023/07/13 09:58:43;;;;;;;;;;;;;;;20.29;100.00;101571.72;4994188;28;19929;-75
2023/07/13 10:01:09;;;;;;;;;;;;;;;20.38;100.00;101574.31;4991172;28;19932;-76
2023/07/13 10:03:38;;;;;;;;;;;;;;;20.92;97.78;101577.66;4994317;28;19933;-72
2023/07/13 10:06:22;;;;;;;;;;;;;;;21.44;96.00;101570.94;4996580;28;19973;-73
2023/07/13 10:08:47;;;;;;;;;;;;;;;21.04;93.84;101575.44;4993973;28;19972;-72
2023/07/13 10:11:17;;;;;;;;;;;;;;;20.81;96.61;101571.50;4998716;28;20059;-73
2023/07/13 10:14:03;;;;;;;;;;;;;;;21.36;94.57;101566.38;4995210;28;20028;-76
2023/07/13 10:16:32;;;;;;;;;;;;;;;21.07;93.23;101573.22;4989213;28;19965;-78
2023/07/13 10:18:58;;;;;;;;;;;;;;;21.21;89.63;101570.81;4992857;28;19964;-74
2023/07/13 10:21:27;;;;;;;;;;;;;;;21.05;91.93;101577.16;4993019;28;20052;-75
2023/07/13 10:23:54;;;;;;;;;;;;;;;20.42;97.83;101583.00;4991227;28;20453;-76
2023/07/13 10:26:22;;;;;;;;;;;;;;;20.43;95.31;101581.13;4994151;28;19932;-75
2023/07/13 10:28:47;;;;;;;;;;;;;;;20.41;93.82;101589.47;4995157;28;20003;-75
2023/07/13 10:31:13;;;;;;;;;;;;;;;20.58;97.58;101582.19;4994028;28;20016;-77
2023/07/13 10:33:39;;;;;;;;;;;;;;;20.90;96.23;101585.16;4975978;28;19933;-76
2023/07/13 10:36:15;;;;;;;;;;;;;;;20.92;97.44;101585.84;4996715;28;19925;-77
2023/07/13 10:38:40;;;;;;;;;;;;;;;20.90;93.36;101583.28;4996770;28;19925;-76
2023/07/13 10:41:06;;;;;;;;;;;;;;;21.24;89.62;101584.13;4991181;28;19929;-78
2023/07/13 10:43:39;;;;;;;;;;;;;;;21.41;90.98;101576.75;4992490;28;19922;-76
2023/07/13 10:46:09;;;;;;;;;;;;;;;21.12;90.92;101586.34;4990725;28;20451;-76
2023/07/13 10:48:36;;;;;;;;;;;;;;;20.89;89.46;101597.09;4976626;28;20392;-75
2023/07/13 10:51:01;;;;;;;;;;;;;;;20.60;97.46;101621.06;5008375;28;19925;-77
2023/07/13 10:53:31;;;;;;;;;;;;;;;20.12;100.00;101636.25;4995057;28;20337;-75
2023/07/13 10:55:59;;;;;;;;;;;;;;;19.78;100.00;101622.41;4979923;28;19921;-74
2023/07/13 10:58:41;;;;;;;;;;;;;;;19.59;100.00;101641.69;4990193;28;19926;-76
2023/07/13 11:01:06;;;;;;;;;;;;;;;18.81;100.00;101663.13;4988666;28;19930;-76
2023/07/13 11:03:32;;;;;;;;;;;;;;;18.82;100.00;101661.25;4998650;28;19970;-75
2023/07/13 11:06:17;;;;;;;;;;;;;;;18.79;100.00;101664.28;4975362;28;20387;-76
2023/07/13 11:08:48;;;;;;;;;;;;;;;17.98;100.00;101659.41;4980773;28;20376;-81
2023/07/13 11:11:29;;;;;;;;;;;;;;;17.63;100.00;101677.19;4995866;28;19925;-73
2023/07/13 11:13:54;;;;;;;;;;;;;;;17.33;100.00;101678.22;4997122;28;19926;-72
2023/07/13 11:16:19;;;;;;;;;;;;;;;16.63;100.00;101690.84;4996432;28;19949;-70
2023/07/13 11:18:45;;;;;;;;;;;;;;;16.61;100.00;101672.97;4991960;28;21228;-71
2023/07/13 11:21:15;;;;;;;;;;;;;;;16.49;100.00;101662.25;4993611;28;19933;-71
2023/07/13 11:23:47;;;;;;;;;;;;;;;16.51;100.00;101659.41;4987227;28;20532;-71
2023/07/13 11:26:30;;;;;;;;;;;;;;;16.57;100.00;101672.41;4977954;28;20044;-72
2023/07/13 11:28:56;;;;;;;;;;;;;;;16.44;100.00;101664.53;4991538;28;19984;-71
2023/07/13 11:31:22;;;;;;;;;;;;;;;16.26;100.00;101686.00;4991886;28;20278;-69
2023/07/13 11:33:52;;;;;;;;;;;;;;;16.26;100.00;101687.84;4991993;28;19926;-68
2023/07/13 11:36:23;;;;;;;;;;;;;;;16.26;100.00;101686.00;4990278;28;19921;-68
2023/07/13 11:38:55;;;;;;;;;;;;;;;16.37;100.00;101682.31;5003045;28;19933;-70
2023/07/13 11:41:21;;;;;;;;;;;;;;;16.36;100.00;101675.19;4991718;28;20324;-71
2023/07/13 11:43:50;;;;;;;;;;;;;;;16.34;100.00;101701.56;4994132;28;19925;-71
2023/07/13 11:46:23;;;;;;;;;;;;;;;16.23;100.00;101680.00;4995872;28;19937;-70
2023/07/13 11:48:50;;;;;;;;;;;;;;;16.12;100.00;101694.50;4993936;28;20626;-70
2023/07/13 11:51:19;;;;;;;;;;;;;;;16.09;100.00;101683.94;4998467;28;20168;-70
2023/07/13 11:53:45;;;;;;;;;;;;;;;16.23;100.00;101683.56;4994042;28;19964;-71
2023/07/13 11:56:10;;;;;;;;;;;;;;;16.45;100.00;101684.34;4997367;28;19948;-71
2023/07/13 11:58:35;;;;;;;;;;;;;;;16.83;100.00;101682.72;4997201;28;20352;-71
2023/07/13 12:01:01;;;;;;;;;;;;;;;17.18;100.00;101680.50;4994165;28;20395;-72
2023/07/13 12:03:27;;;;;;;;;;;;;;;17.32;100.00;101673.78;4997057;28;20827;-74
2023/07/13 12:06:00;;;;;;;;;;;;;;;17.53;100.00;101666.34;4992529;28;20458;-72
2023/07/13 12:08:25;;;;;;;;;;;;;;;17.76;100.00;101662.44;4995091;28;19926;-73
2023/07/13 12:10:56;;;;;;;;;;;;;;;17.94;100.00;101657.94;4982764;28;20394;-74
2023/07/13 12:13:21;;;;;;;;;;;;;;;18.25;100.00;101649.56;5001284;28;20435;-73
2023/07/13 12:15:48;;;;;;;;;;;;;;;19.38;100.00;101644.78;4993925;28;19921;-75
2023/07/13 12:18:14;;;;;;;;;;;;;;;20.49;100.00;101646.78;4992113;28;19925;-74
2023/07/13 12:20:39;;;;;;;;;;;;;;;21.21;100.00;101639.06;4991153;28;20111;-74
2023/07/13 12:23:05;;;;;;;;;;;;;;;22.62;100.00;101647.81;4993540;28;19956;-72
2023/07/13 12:25:30;;;;;;;;;;;;;;;22.82;100.00;101636.38;5012698;28;19979;-74